sensor_id;sensor_type;location;lat;lon;timestamp;temperature;humidity
12771;DHT22;6449;47.666;9.160;2024-01-16T00:04:05;-1.20;99.90
12771;DHT22;6449;47.666;9.160;2024-01-16T00:09:01;-1.30;99.90
12771;DHT22;6449;47.666;9.160;2024-01-16T00:13:54;-1.30;99.90
12771;DHT22;6449;47.666;9.160;2024-01-16T00:18:47;-1.50;99.90
12771;DHT22;6449;47.666;9.160;2024-01-16T00:23:41;-1.60;99.90
12771;DHT22;6449;47.666;9.160;2024-01-16T00:28:36;-1.70;99.90
12771;DHT22;6449;47.666;9.160;2024-01-16T00:33:29;-1.70;99.90
12771;DHT22;6449;47.666;9.160;2024-01-16T00:38:22;-1.70;99.90
12771;DHT22;6449;47.666;9.160;2024-01-16T00:43:16;-1.60;99.90
12771;DHT22;6449;47.666;9.160;2024-01-16T00:48:11;-1.60;99.90
12771;DHT22;6449;47.666;9.160;2024-01-16T00:53:06;-1.40;99.90
12771;DHT22;6449;47.666;9.160;2024-01-16T00:57:59;-1.50;99.90
12771;DHT22;6449;47.666;9.160;2024-01-16T01:02:53;-1.40;99.90
12771;DHT22;6449;47.666;9.160;2024-01-16T01:07:47;-1.30;99.90
12771;DHT22;6449;47.666;9.160;2024-01-16T01:12:41;-1.40;99.90
12771;DHT22;6449;47.666;9.160;2024-01-16T01:17:34;-1.40;99.90
12771;DHT22;6449;47.666;9.160;2024-01-16T01:22:28;-1.30;99.90
12771;DHT22;6449;47.666;9.160;2024-01-16T01:27:23;-1.30;99.90
12771;DHT22;6449;47.666;9.160;2024-01-16T01:32:16;-1.20;99.90
12771;DHT22;6449;47.666;9.160;2024-01-16T01:37:10;-1.20;99.90
12771;DHT22;6449;47.666;9.160;2024-01-16T01:42:04;-1.30;99.90
12771;DHT22;6449;47.666;9.160;2024-01-16T01:46:58;-1.30;99.90
12771;DHT22;6449;47.666;9.160;2024-01-16T01:51:53;-1.20;99.90
12771;DHT22;6449;47.666;9.160;2024-01-16T01:56:48;-1.20;99.90
12771;DHT22;6449;47.666;9.160;2024-01-16T02:01:42;-1.40;99.90
12771;DHT22;6449;47.666;9.160;2024-01-16T02:07:07;-1.40;99.90
12771;DHT22;6449;47.666;9.160;2024-01-16T02:12:03;-1.60;99.90
12771;DHT22;6449;47.666;9.160;2024-01-16T02:16:57;-1.70;99.90
12771;DHT22;6449;47.666;9.160;2024-01-16T02:21:57;-1.60;99.90
12771;DHT22;6449;47.666;9.160;2024-01-16T02:26:55;-1.50;99.90
12771;DHT22;6449;47.666;9.160;2024-01-16T02:31:49;-1.40;99.90
12771;DHT22;6449;47.666;9.160;2024-01-16T02:36:42;-1.30;99.90
12771;DHT22;6449;47.666;9.160;2024-01-16T02:41:35;-1.30;99.90
12771;DHT22;6449;47.666;9.160;2024-01-16T02:46:30;-1.30;99.90
12771;DHT22;6449;47.666;9.160;2024-01-16T02:51:24;-1.30;99.90
12771;DHT22;6449;47.666;9.160;2024-01-16T02:56:17;-1.30;99.90
12771;DHT22;6449;47.666;9.160;2024-01-16T03:01:11;-1.40;99.90
12771;DHT22;6449;47.666;9.160;2024-01-16T03:06:06;-1.40;99.90
12771;DHT22;6449;47.666;9.160;2024-01-16T03:10:59;-1.40;99.90
12771;DHT22;6449;47.666;9.160;2024-01-16T03:15:53;-1.40;99.90
12771;DHT22;6449;47.666;9.160;2024-01-16T03:20:49;-1.40;99.90
12771;DHT22;6449;47.666;9.160;2024-01-16T03:25:44;-1.20;99.90
12771;DHT22;6449;47.666;9.160;2024-01-16T03:30:37;-1.20;99.90
12771;DHT22;6449;47.666;9.160;2024-01-16T03:35:30;-1.30;99.90
12771;DHT22;6449;47.666;9.160;2024-01-16T03:40:24;-1.30;99.90
12771;DHT22;6449;47.666;9.160;2024-01-16T03:45:18;-1.30;99.90
12771;DHT22;6449;47.666;9.160;2024-01-16T03:50:12;-1.20;99.90
12771;DHT22;6449;47.666;9.160;2024-01-16T03:55:06;-1.20;99.90
12771;DHT22;6449;47.666;9.160;2024-01-16T03:59:59;-1.20;99.90
12771;DHT22;6449;47.666;9.160;2024-01-16T04:04:54;-1.20;99.90
12771;DHT22;6449;47.666;9.160;2024-01-16T04:09:47;-1.30;99.90
12771;DHT22;6449;47.666;9.160;2024-01-16T04:14:41;-1.20;99.90
12771;DHT22;6449;47.666;9.160;2024-01-16T04:19:34;-1.10;99.90
12771;DHT22;6449;47.666;9.160;2024-01-16T04:24:30;-1.10;99.90
12771;DHT22;6449;47.666;9.160;2024-01-16T04:29:23;-1.10;99.90
12771;DHT22;6449;47.666;9.160;2024-01-16T04:34:17;-1.10;99.90
12771;DHT22;6449;47.666;9.160;2024-01-16T04:39:10;-1.10;99.90
12771;DHT22;6449;47.666;9.160;2024-01-16T04:44:05;-1.10;99.90
12771;DHT22;6449;47.666;9.160;2024-01-16T04:48:58;-1.10;99.90
12771;DHT22;6449;47.666;9.160;2024-01-16T04:53:52;-1.10;99.90
12771;DHT22;6449;47.666;9.160;2024-01-16T04:58:45;-1.10;99.90
12771;DHT22;6449;47.666;9.160;2024-01-16T05:03:40;-1.10;99.90
12771;DHT22;6449;47.666;9.160;2024-01-16T05:08:34;-1.00;99.90
12771;DHT22;6449;47.666;9.160;2024-01-16T05:13:28;-1.00;99.90
12771;DHT22;6449;47.666;9.160;2024-01-16T05:18:22;-1.00;99.90
12771;DHT22;6449;47.666;9.160;2024-01-16T05:23:16;-1.10;99.90
12771;DHT22;6449;47.666;9.160;2024-01-16T05:28:10;-1.00;99.90
12771;DHT22;6449;47.666;9.160;2024-01-16T05:33:04;-1.10;99.90
12771;DHT22;6449;47.666;9.160;2024-01-16T05:37:58;-1.10;99.90
12771;DHT22;6449;47.666;9.160;2024-01-16T05:42:53;-1.20;99.90
12771;DHT22;6449;47.666;9.160;2024-01-16T05:47:49;-1.20;99.90
12771;DHT22;6449;47.666;9.160;2024-01-16T05:52:45;-1.20;99.90
12771;DHT22;6449;47.666;9.160;2024-01-16T05:57:39;-1.10;99.90
12771;DHT22;6449;47.666;9.160;2024-01-16T06:02:34;-1.10;99.90
12771;DHT22;6449;47.666;9.160;2024-01-16T06:07:27;-1.20;99.90
12771;DHT22;6449;47.666;9.160;2024-01-16T06:12:20;-1.20;99.90
12771;DHT22;6449;47.666;9.160;2024-01-16T06:17:14;-1.10;99.90
12771;DHT22;6449;47.666;9.160;2024-01-16T06:22:09;-1.40;99.90
12771;DHT22;6449;47.666;9.160;2024-01-16T06:27:04;-1.40;99.90
12771;DHT22;6449;47.666;9.160;2024-01-16T06:31:59;-1.40;99.90
12771;DHT22;6449;47.666;9.160;2024-01-16T06:36:54;-1.60;99.90
12771;DHT22;6449;47.666;9.160;2024-01-16T06:41:49;-1.60;99.90
12771;DHT22;6449;47.666;9.160;2024-01-16T06:46:42;-1.70;99.90
12771;DHT22;6449;47.666;9.160;2024-01-16T06:51:36;-1.70;99.90
12771;DHT22;6449;47.666;9.160;2024-01-16T06:56:29;-1.70;99.90
12771;DHT22;6449;47.666;9.160;2024-01-16T07:01:27;-1.60;99.90
12771;DHT22;6449;47.666;9.160;2024-01-16T07:06:21;-1.50;99.90
12771;DHT22;6449;47.666;9.160;2024-01-16T07:11:14;-1.50;99.90
12771;DHT22;6449;47.666;9.160;2024-01-16T07:16:09;-1.70;99.90
12771;DHT22;6449;47.666;9.160;2024-01-16T07:21:15;-1.70;99.90
12771;DHT22;6449;47.666;9.160;2024-01-16T07:26:10;-1.70;99.90
12771;DHT22;6449;47.666;9.160;2024-01-16T07:31:04;-1.90;99.90
12771;DHT22;6449;47.666;9.160;2024-01-16T07:35:58;-2.00;99.90
12771;DHT22;6449;47.666;9.160;2024-01-16T07:40:52;-1.90;99.90
12771;DHT22;6449;47.666;9.160;2024-01-16T07:45:47;-2.00;99.90
12771;DHT22;6449;47.666;9.160;2024-01-16T07:50:41;-1.90;99.90
12771;DHT22;6449;47.666;9.160;2024-01-16T07:55:36;-1.90;99.90
12771;DHT22;6449;47.666;9.160;2024-01-16T08:00:30;-1.90;99.90
12771;DHT22;6449;47.666;9.160;2024-01-16T08:05:24;-2.00;99.90
12771;DHT22;6449;47.666;9.160;2024-01-16T08:10:20;-2.10;99.90
12771;DHT22;6449;47.666;9.160;2024-01-16T08:15:13;-1.90;99.90
12771;DHT22;6449;47.666;9.160;2024-01-16T08:20:09;-1.80;99.90
12771;DHT22;6449;47.666;9.160;2024-01-16T08:25:04;-1.80;99.90
12771;DHT22;6449;47.666;9.160;2024-01-16T08:29:58;-1.70;99.90
12771;DHT22;6449;47.666;9.160;2024-01-16T08:34:52;-1.70;99.90
12771;DHT22;6449;47.666;9.160;2024-01-16T08:39:47;-1.70;99.90
12771;DHT22;6449;47.666;9.160;2024-01-16T08:44:40;-1.70;99.90
12771;DHT22;6449;47.666;9.160;2024-01-16T08:49:33;-1.60;99.90
12771;DHT22;6449;47.666;9.160;2024-01-16T08:54:27;-1.50;99.90
12771;DHT22;6449;47.666;9.160;2024-01-16T08:59:22;-1.40;99.90
12771;DHT22;6449;47.666;9.160;2024-01-16T09:04:15;-1.40;99.90
12771;DHT22;6449;47.666;9.160;2024-01-16T09:09:09;-1.40;99.90
12771;DHT22;6449;47.666;9.160;2024-01-16T09:14:04;-1.60;99.90
12771;DHT22;6449;47.666;9.160;2024-01-16T09:18:59;-1.50;99.90
12771;DHT22;6449;47.666;9.160;2024-01-16T09:23:52;-1.30;99.90
12771;DHT22;6449;47.666;9.160;2024-01-16T09:28:46;-1.20;99.90
12771;DHT22;6449;47.666;9.160;2024-01-16T09:33:40;-1.10;99.90
12771;DHT22;6449;47.666;9.160;2024-01-16T09:38:36;-1.10;99.90
12771;DHT22;6449;47.666;9.160;2024-01-16T09:43:42;-1.00;99.90
12771;DHT22;6449;47.666;9.160;2024-01-16T09:48:52;-1.00;99.90
12771;DHT22;6449;47.666;9.160;2024-01-16T09:53:49;-0.90;99.90
12771;DHT22;6449;47.666;9.160;2024-01-16T09:58:48;-0.90;99.90
12771;DHT22;6449;47.666;9.160;2024-01-16T10:03:45;-0.90;99.90
12771;DHT22;6449;47.666;9.160;2024-01-16T10:08:44;-1.00;99.90
12771;DHT22;6449;47.666;9.160;2024-01-16T10:13:44;-0.70;99.90
12771;DHT22;6449;47.666;9.160;2024-01-16T10:18:37;-0.70;99.90
12771;DHT22;6449;47.666;9.160;2024-01-16T10:23:32;-0.60;99.90
12771;DHT22;6449;47.666;9.160;2024-01-16T10:28:29;-0.60;99.90
12771;DHT22;6449;47.666;9.160;2024-01-16T10:33:27;-0.60;99.90
12771;DHT22;6449;47.666;9.160;2024-01-16T10:38:30;-0.60;99.90
12771;DHT22;6449;47.666;9.160;2024-01-16T10:43:34;-0.70;99.90
12771;DHT22;6449;47.666;9.160;2024-01-16T10:48:38;-0.80;99.90
12771;DHT22;6449;47.666;9.160;2024-01-16T10:53:44;-0.80;99.90
12771;DHT22;6449;47.666;9.160;2024-01-16T10:58:41;-0.70;99.90
12771;DHT22;6449;47.666;9.160;2024-01-16T11:03:43;-0.70;99.90
12771;DHT22;6449;47.666;9.160;2024-01-16T11:08:49;-0.50;99.90
12771;DHT22;6449;47.666;9.160;2024-01-16T11:13:51;-0.50;99.90
12771;DHT22;6449;47.666;9.160;2024-01-16T11:18:57;-0.40;99.90
12771;DHT22;6449;47.666;9.160;2024-01-16T11:24:12;-0.40;99.90
12771;DHT22;6449;47.666;9.160;2024-01-16T11:29:33;-0.40;99.90
12771;DHT22;6449;47.666;9.160;2024-01-16T11:34:55;-0.50;99.90
12771;DHT22;6449;47.666;9.160;2024-01-16T11:39:49;-0.40;99.90
12771;DHT22;6449;47.666;9.160;2024-01-16T11:44:45;-0.30;99.90
12771;DHT22;6449;47.666;9.160;2024-01-16T11:49:42;-0.40;99.90
12771;DHT22;6449;47.666;9.160;2024-01-16T11:54:49;-0.30;99.90
12771;DHT22;6449;47.666;9.160;2024-01-16T12:00:02;-0.30;99.90
12771;DHT22;6449;47.666;9.160;2024-01-16T12:05:22;-0.30;99.90
12771;DHT22;6449;47.666;9.160;2024-01-16T12:10:45;-0.20;99.90
12771;DHT22;6449;47.666;9.160;2024-01-16T12:16:08;-0.30;99.90
12771;DHT22;6449;47.666;9.160;2024-01-16T12:21:25;-0.30;99.90
12771;DHT22;6449;47.666;9.160;2024-01-16T12:26:25;-0.30;99.90
12771;DHT22;6449;47.666;9.160;2024-01-16T12:31:24;-0.20;99.90
12771;DHT22;6449;47.666;9.160;2024-01-16T12:37:00;-0.20;99.90
12771;DHT22;6449;47.666;9.160;2024-01-16T12:41:45;-0.10;99.90
12771;DHT22;6449;47.666;9.160;2024-01-16T12:47:05;0.00;99.90
12771;DHT22;6449;47.666;9.160;2024-01-16T12:52:19;0.00;99.90
12771;DHT22;6449;47.666;9.160;2024-01-16T12:57:29;0.10;99.90
12771;DHT22;6449;47.666;9.160;2024-01-16T13:02:25;0.20;99.90
12771;DHT22;6449;47.666;9.160;2024-01-16T13:07:27;0.20;99.90
12771;DHT22;6449;47.666;9.160;2024-01-16T13:12:32;0.10;99.90
12771;DHT22;6449;47.666;9.160;2024-01-16T13:17:29;0.20;99.90
12771;DHT22;6449;47.666;9.160;2024-01-16T13:22:37;0.30;99.90
12771;DHT22;6449;47.666;9.160;2024-01-16T13:27:42;0.40;99.90
12771;DHT22;6449;47.666;9.160;2024-01-16T13:32:51;0.20;99.90
12771;DHT22;6449;47.666;9.160;2024-01-16T13:37:48;0.20;99.90
12771;DHT22;6449;47.666;9.160;2024-01-16T13:42:43;0.20;99.90
12771;DHT22;6449;47.666;9.160;2024-01-16T13:47:37;0.20;99.90
12771;DHT22;6449;47.666;9.160;2024-01-16T13:52:32;0.40;99.90
12771;DHT22;6449;47.666;9.160;2024-01-16T13:57:26;0.40;99.90
12771;DHT22;6449;47.666;9.160;2024-01-16T14:02:21;0.40;99.90
12771;DHT22;6449;47.666;9.160;2024-01-16T14:07:14;0.40;99.90
12771;DHT22;6449;47.666;9.160;2024-01-16T14:12:08;0.40;99.90
12771;DHT22;6449;47.666;9.160;2024-01-16T14:17:02;0.50;99.90
12771;DHT22;6449;47.666;9.160;2024-01-16T14:21:57;0.50;99.90
12771;DHT22;6449;47.666;9.160;2024-01-16T14:26:51;0.60;99.90
12771;DHT22;6449;47.666;9.160;2024-01-16T14:31:44;0.50;99.90
12771;DHT22;6449;47.666;9.160;2024-01-16T14:36:42;0.40;99.90
12771;DHT22;6449;47.666;9.160;2024-01-16T14:41:36;0.50;99.90
12771;DHT22;6449;47.666;9.160;2024-01-16T14:46:30;0.50;99.90
12771;DHT22;6449;47.666;9.160;2024-01-16T14:51:24;0.50;99.90
12771;DHT22;6449;47.666;9.160;2024-01-16T14:56:18;0.50;99.90
12771;DHT22;6449;47.666;9.160;2024-01-16T15:01:13;0.50;99.90
12771;DHT22;6449;47.666;9.160;2024-01-16T15:06:08;0.40;99.90
12771;DHT22;6449;47.666;9.160;2024-01-16T15:11:07;0.30;99.90
12771;DHT22;6449;47.666;9.160;2024-01-16T15:16:01;0.20;99.90
12771;DHT22;6449;47.666;9.160;2024-01-16T15:20:57;0.00;99.90
12771;DHT22;6449;47.666;9.160;2024-01-16T15:25:52;-0.10;99.90
12771;DHT22;6449;47.666;9.160;2024-01-16T15:30:46;-0.10;99.90
12771;DHT22;6449;47.666;9.160;2024-01-16T15:35:40;-0.20;99.90
12771;DHT22;6449;47.666;9.160;2024-01-16T15:40:37;-0.20;99.90
12771;DHT22;6449;47.666;9.160;2024-01-16T15:45:43;-0.30;99.90
12771;DHT22;6449;47.666;9.160;2024-01-16T15:50:49;-0.40;99.90
12771;DHT22;6449;47.666;9.160;2024-01-16T15:55:47;-0.50;99.90
12771;DHT22;6449;47.666;9.160;2024-01-16T16:01:00;-0.50;99.90
12771;DHT22;6449;47.666;9.160;2024-01-16T16:06:13;-0.70;99.90
12771;DHT22;6449;47.666;9.160;2024-01-16T16:11:10;-0.70;99.90
12771;DHT22;6449;47.666;9.160;2024-01-16T16:16:09;-0.70;99.90
12771;DHT22;6449;47.666;9.160;2024-01-16T16:21:17;-0.70;99.90
12771;DHT22;6449;47.666;9.160;2024-01-16T16:26:28;-0.90;99.90
12771;DHT22;6449;47.666;9.160;2024-01-16T16:31:25;-1.10;99.90
12771;DHT22;6449;47.666;9.160;2024-01-16T16:36:23;-1.20;99.90
12771;DHT22;6449;47.666;9.160;2024-01-16T16:41:18;-1.20;99.90
12771;DHT22;6449;47.666;9.160;2024-01-16T16:46:13;-1.20;99.90
12771;DHT22;6449;47.666;9.160;2024-01-16T16:51:09;-1.20;99.90
12771;DHT22;6449;47.666;9.160;2024-01-16T16:56:04;-1.20;99.90
12771;DHT22;6449;47.666;9.160;2024-01-16T17:01:00;-1.30;99.90
12771;DHT22;6449;47.666;9.160;2024-01-16T17:05:53;-1.30;99.90
12771;DHT22;6449;47.666;9.160;2024-01-16T17:10:47;-1.30;99.90
12771;DHT22;6449;47.666;9.160;2024-01-16T17:15:43;-1.20;99.90
12771;DHT22;6449;47.666;9.160;2024-01-16T17:20:39;-1.30;99.90
12771;DHT22;6449;47.666;9.160;2024-01-16T17:25:33;-1.30;99.90
12771;DHT22;6449;47.666;9.160;2024-01-16T17:30:27;-1.40;99.90
12771;DHT22;6449;47.666;9.160;2024-01-16T17:35:21;-1.60;99.90
12771;DHT22;6449;47.666;9.160;2024-01-16T17:40:19;-1.60;99.90
12771;DHT22;6449;47.666;9.160;2024-01-16T17:45:16;-1.60;99.90
12771;DHT22;6449;47.666;9.160;2024-01-16T17:50:16;-1.60;99.90
12771;DHT22;6449;47.666;9.160;2024-01-16T17:55:10;-1.80;99.90
12771;DHT22;6449;47.666;9.160;2024-01-16T18:00:06;-1.80;99.90
12771;DHT22;6449;47.666;9.160;2024-01-16T18:05:01;-1.80;99.90
12771;DHT22;6449;47.666;9.160;2024-01-16T18:10:02;-1.80;99.90
12771;DHT22;6449;47.666;9.160;2024-01-16T18:15:07;-1.80;99.90
12771;DHT22;6449;47.666;9.160;2024-01-16T18:20:05;-1.70;99.90
12771;DHT22;6449;47.666;9.160;2024-01-16T18:25:01;-1.70;99.90
12771;DHT22;6449;47.666;9.160;2024-01-16T18:30:09;-1.80;99.90
12771;DHT22;6449;47.666;9.160;2024-01-16T18:35:07;-1.80;99.90
12771;DHT22;6449;47.666;9.160;2024-01-16T18:40:08;-1.80;99.90
12771;DHT22;6449;47.666;9.160;2024-01-16T18:45:12;-1.70;99.90
12771;DHT22;6449;47.666;9.160;2024-01-16T18:50:10;-1.90;99.90
12771;DHT22;6449;47.666;9.160;2024-01-16T18:55:05;-1.90;99.90
12771;DHT22;6449;47.666;9.160;2024-01-16T19:06:46;-2.00;99.90
12771;DHT22;6449;47.666;9.160;2024-01-16T19:11:57;-2.10;99.90
12771;DHT22;6449;47.666;9.160;2024-01-16T19:17:48;-2.00;99.90
12771;DHT22;6449;47.666;9.160;2024-01-16T19:23:19;-2.20;99.90
12771;DHT22;6449;47.666;9.160;2024-01-16T19:28:29;-2.30;99.90
12771;DHT22;6449;47.666;9.160;2024-01-16T19:34:12;-2.30;99.90
12771;DHT22;6449;47.666;9.160;2024-01-16T19:39:19;-2.40;99.90
12771;DHT22;6449;47.666;9.160;2024-01-16T19:44:31;-2.30;99.90
12771;DHT22;6449;47.666;9.160;2024-01-16T19:49:26;-2.20;99.90
12771;DHT22;6449;47.666;9.160;2024-01-16T19:54:24;-2.10;99.90
12771;DHT22;6449;47.666;9.160;2024-01-16T19:59:26;-2.10;99.90
12771;DHT22;6449;47.666;9.160;2024-01-16T20:04:30;-2.00;99.90
12771;DHT22;6449;47.666;9.160;2024-01-16T20:09:25;-2.10;99.90
12771;DHT22;6449;47.666;9.160;2024-01-16T20:20:53;-2.30;99.90
12771;DHT22;6449;47.666;9.160;2024-01-16T20:32:15;-1.90;99.90
12771;DHT22;6449;47.666;9.160;2024-01-16T20:43:12;-1.60;99.90
12771;DHT22;6449;47.666;9.160;2024-01-16T20:48:07;-1.60;99.90
12771;DHT22;6449;47.666;9.160;2024-01-16T20:53:03;-1.70;99.90
12771;DHT22;6449;47.666;9.160;2024-01-16T20:58:00;-1.60;99.90
12771;DHT22;6449;47.666;9.160;2024-01-16T21:02:53;-1.60;99.90
12771;DHT22;6449;47.666;9.160;2024-01-16T21:07:49;-1.50;99.90
12771;DHT22;6449;47.666;9.160;2024-01-16T21:12:43;-1.60;99.90
12771;DHT22;6449;47.666;9.160;2024-01-16T21:17:38;-1.50;99.90
12771;DHT22;6449;47.666;9.160;2024-01-16T21:22:32;-1.50;99.90
12771;DHT22;6449;47.666;9.160;2024-01-16T21:27:29;-1.40;99.90
12771;DHT22;6449;47.666;9.160;2024-01-16T21:32:27;-1.40;99.90
12771;DHT22;6449;47.666;9.160;2024-01-16T21:37:21;-1.40;99.90
12771;DHT22;6449;47.666;9.160;2024-01-16T21:42:15;-1.30;99.90
12771;DHT22;6449;47.666;9.160;2024-01-16T21:47:10;-1.30;99.90
12771;DHT22;6449;47.666;9.160;2024-01-16T21:52:04;-1.20;99.90
12771;DHT22;6449;47.666;9.160;2024-01-16T21:56:59;-1.10;99.90
12771;DHT22;6449;47.666;9.160;2024-01-16T22:01:52;-1.10;99.90
12771;DHT22;6449;47.666;9.160;2024-01-16T22:06:47;-1.10;99.90
12771;DHT22;6449;47.666;9.160;2024-01-16T22:11:40;-1.00;99.90
12771;DHT22;6449;47.666;9.160;2024-01-16T22:16:34;-1.10;99.90
12771;DHT22;6449;47.666;9.160;2024-01-16T22:21:27;-1.00;99.90
12771;DHT22;6449;47.666;9.160;2024-01-16T22:26:22;-1.00;99.90
12771;DHT22;6449;47.666;9.160;2024-01-16T22:31:15;-1.00;99.90
12771;DHT22;6449;47.666;9.160;2024-01-16T22:36:09;-1.00;99.90
12771;DHT22;6449;47.666;9.160;2024-01-16T22:41:03;-1.00;99.90
12771;DHT22;6449;47.666;9.160;2024-01-16T22:45:58;-1.00;99.90
12771;DHT22;6449;47.666;9.160;2024-01-16T22:50:52;-1.00;99.90
12771;DHT22;6449;47.666;9.160;2024-01-16T22:55:45;-1.00;99.90
12771;DHT22;6449;47.666;9.160;2024-01-16T23:00:40;-0.90;99.90
12771;DHT22;6449;47.666;9.160;2024-01-16T23:05:35;-1.00;99.90
12771;DHT22;6449;47.666;9.160;2024-01-16T23:10:30;-1.00;99.90
12771;DHT22;6449;47.666;9.160;2024-01-16T23:15:23;-1.00;99.90
12771;DHT22;6449;47.666;9.160;2024-01-16T23:20:17;-1.00;99.90
12771;DHT22;6449;47.666;9.160;2024-01-16T23:25:13;-0.90;99.90
12771;DHT22;6449;47.666;9.160;2024-01-16T23:30:09;-0.80;99.90
12771;DHT22;6449;47.666;9.160;2024-01-16T23:35:04;-0.80;99.90
12771;DHT22;6449;47.666;9.160;2024-01-16T23:39:58;-0.70;99.90
12771;DHT22;6449;47.666;9.160;2024-01-16T23:44:54;-0.70;99.90
12771;DHT22;6449;47.666;9.160;2024-01-16T23:49:54;-0.60;99.90
12771;DHT22;6449;47.666;9.160;2024-01-16T23:54:47;-0.60;99.90
12771;DHT22;6449;47.666;9.160;2024-01-16T23:59:41;-0.60;99.90
